Time;durP1;ratioP1;P1;durP2;ratioP2;P2;SDS_P1;SDS_P2;PMS_P1;PMS_P2;Temp;Humidity;BMP_temperature;BMP_pressure;BME280_temperature;BME280_humidity;BME280_pressure;Samples;Min_cycle;Max_cycle;Signal;HPM_P1;HPM_P2
2022/12/01 00:01:34;;;;;;;28.30;19.37;;;;;;;;;;5068716;28;20448;-76
2022/12/01 00:04:02;;;;;;;27.50;18.97;;;;;;;;;;5068558;28;20459;-75
2022/12/01 00:06:29;;;;;;;24.97;17.93;;;;;;;;;;5069005;28;20455;-75
2022/12/01 00:11:43;;;;;;;33.03;18.87;;;;;;;;;;5042613;28;20432;-77
2022/12/01 00:14:10;;;;;;;31.07;20.00;;;;;;;;;;5068305;28;20542;-76
2022/12/01 00:16:39;;;;;;;28.77;19.07;;;;;;;;;;5070330;28;20447;-76
2022/12/01 00:19:07;;;;;;;31.87;20.90;;;;;;;;;;5071591;28;20472;-77
2022/12/01 00:21:34;;;;;;;30.70;19.37;;;;;;;;;;5068830;28;20819;-78
2022/12/01 00:24:01;;;;;;;30.10;20.27;;;;;;;;;;5071480;28;20441;-76
2022/12/01 00:26:28;;;;;;;31.10;20.80;;;;;;;;;;5069631;28;20456;-77
2022/12/01 00:28:56;;;;;;;28.03;19.50;;;;;;;;;;5069343;28;20449;-76
2022/12/01 00:31:23;;;;;;;27.57;19.47;;;;;;;;;;5071104;28;20456;-76
2022/12/01 00:33:52;;;;;;;32.90;20.90;;;;;;;;;;5073370;28;20441;-76
2022/12/01 00:36:19;;;;;;;27.83;19.70;;;;;;;;;;5070621;28;20436;-76
2022/12/01 00:38:46;;;;;;;30.47;19.90;;;;;;;;;;5084085;28;20483;-76
2022/12/01 00:41:13;;;;;;;28.83;19.63;;;;;;;;;;5073313;28;20458;-77
2022/12/01 00:43:41;;;;;;;31.53;19.60;;;;;;;;;;5067664;28;21006;-75
2022/12/01 00:46:08;;;;;;;33.90;21.63;;;;;;;;;;5069885;28;20472;-76
2022/12/01 00:48:35;;;;;;;30.60;19.37;;;;;;;;;;5089877;28;20448;-77
2022/12/01 00:51:03;;;;;;;31.60;20.63;;;;;;;;;;5090890;28;20425;-77
2022/12/01 00:53:30;;;;;;;28.97;19.90;;;;;;;;;;5089119;28;20447;-76
2022/12/01 00:55:57;;;;;;;28.40;19.93;;;;;;;;;;5083579;28;20977;-77
2022/12/01 00:58:25;;;;;;;31.30;19.20;;;;;;;;;;5085731;28;20480;-75
2022/12/01 01:00:57;;;;;;;30.20;19.70;;;;;;;;;;5079761;28;20440;-75
2022/12/01 01:03:24;;;;;;;27.73;18.90;;;;;;;;;;5087469;28;20487;-75
2022/12/01 01:05:51;;;;;;;29.97;21.07;;;;;;;;;;5091333;28;20475;-75
2022/12/01 01:08:20;;;;;;;31.80;21.00;;;;;;;;;;5082798;28;20435;-76
2022/12/01 01:10:48;;;;;;;29.50;20.33;;;;;;;;;;5076177;28;20847;-75
2022/12/01 01:13:15;;;;;;;31.50;20.27;;;;;;;;;;5071969;28;20480;-75
2022/12/01 01:15:42;;;;;;;28.67;20.17;;;;;;;;;;5054457;28;20469;-76
2022/12/01 01:18:11;;;;;;;31.83;20.20;;;;;;;;;;5053785;28;20453;-76
2022/12/01 01:20:39;;;;;;;29.77;19.77;;;;;;;;;;5053433;28;20471;-76
2022/12/01 01:23:06;;;;;;;27.47;18.10;;;;;;;;;;5052649;28;20449;-76
2022/12/01 01:25:34;;;;;;;28.53;19.10;;;;;;;;;;5052362;28;20566;-76
2022/12/01 01:28:01;;;;;;;26.53;17.37;;;;;;;;;;5051720;28;20447;-75
2022/12/01 01:30:28;;;;;;;28.77;18.87;;;;;;;;;;5051667;28;20474;-77
2022/12/01 01:32:55;;;;;;;27.53;18.60;;;;;;;;;;5051119;28;20459;-77
2022/12/01 01:35:22;;;;;;;25.80;18.70;;;;;;;;;;5051657;28;20476;-76
2022/12/01 01:37:50;;;;;;;27.63;18.80;;;;;;;;;;5051669;28;20439;-76
2022/12/01 01:40:17;;;;;;;24.80;17.60;;;;;;;;;;5051643;28;20495;-77
2022/12/01 01:42:46;;;;;;;25.73;18.27;;;;;;;;;;5050847;28;20452;-76
2022/12/01 01:45:20;;;;;;;26.57;18.50;;;;;;;;;;5050995;28;20471;-75
2022/12/01 01:47:49;;;;;;;26.90;18.80;;;;;;;;;;5050999;28;20520;-76
2022/12/01 01:50:17;;;;;;;30.10;19.90;;;;;;;;;;5050885;28;20432;-76
2022/12/01 01:52:46;;;;;;;28.30;18.03;;;;;;;;;;5050475;28;20479;-76
2022/12/01 01:55:14;;;;;;;23.50;17.00;;;;;;;;;;5050889;28;20465;-76
2022/12/01 01:57:42;;;;;;;27.07;17.60;;;;;;;;;;5051317;28;20449;-76
2022/12/01 02:00:12;;;;;;;26.07;18.43;;;;;;;;;;5051845;28;20985;-76
2022/12/01 02:02:43;;;;;;;26.30;18.27;;;;;;;;;;5070374;28;20763;-76
2022/12/01 02:05:12;;;;;;;26.03;18.20;;;;;;;;;;5070549;28;20487;-77
2022/12/01 02:07:40;;;;;;;29.00;18.67;;;;;;;;;;5070991;28;20444;-76
2022/12/01 02:10:08;;;;;;;27.07;18.90;;;;;;;;;;5070984;28;20440;-76
2022/12/01 02:12:47;;;;;;;23.43;17.60;;;;;;;;;;5069867;28;20482;-76
2022/12/01 02:15:21;;;;;;;24.93;17.50;;;;;;;;;;5050455;28;20476;-76
2022/12/01 02:17:51;;;;;;;23.40;16.47;;;;;;;;;;5050118;28;20476;-77
2022/12/01 02:20:26;;;;;;;25.80;18.13;;;;;;;;;;5049968;28;20504;-76
2022/12/01 02:23:03;;;;;;;19.83;14.33;;;;;;;;;;5049621;28;20436;-75
2022/12/01 02:25:36;;;;;;;23.00;15.43;;;;;;;;;;5050403;28;20464;-76
2022/12/01 02:28:22;;;;;;;25.90;17.93;;;;;;;;;;5050412;28;20813;-76
2022/12/01 02:30:51;;;;;;;27.50;16.90;;;;;;;;;;5050695;28;20445;-76
2022/12/01 02:33:20;;;;;;;25.10;16.77;;;;;;;;;;5049657;28;20467;-76
2022/12/01 02:35:49;;;;;;;23.77;17.07;;;;;;;;;;5049831;28;20496;-76
2022/12/01 02:38:20;;;;;;;23.50;16.40;;;;;;;;;;5050072;28;20456;-75
2022/12/01 02:40:50;;;;;;;27.47;16.77;;;;;;;;;;5050124;28;20441;-76
2022/12/01 02:43:20;;;;;;;27.57;17.70;;;;;;;;;;5049176;28;20968;-75
2022/12/01 02:45:50;;;;;;;26.30;16.53;;;;;;;;;;5049953;28;20472;-76
2022/12/01 02:48:22;;;;;;;25.40;16.70;;;;;;;;;;5050367;28;20444;-76
2022/12/01 02:50:50;;;;;;;25.50;17.27;;;;;;;;;;5050174;28;20447;-76
2022/12/01 02:53:19;;;;;;;23.87;16.50;;;;;;;;;;5049500;28;20444;-75
2022/12/01 02:55:50;;;;;;;23.47;16.13;;;;;;;;;;5049631;28;20465;-75
2022/12/01 02:58:17;;;;;;;21.80;15.97;;;;;;;;;;5050271;28;20445;-75
2022/12/01 03:00:49;;;;;;;25.50;17.97;;;;;;;;;;5059407;28;20495;-76
2022/12/01 03:03:26;;;;;;;26.00;16.50;;;;;;;;;;5052056;28;20456;-77
2022/12/01 03:05:57;;;;;;;25.93;17.80;;;;;;;;;;5049494;28;20836;-76
2022/12/01 03:08:28;;;;;;;27.13;17.87;;;;;;;;;;5049790;28;20463;-75
2022/12/01 03:10:56;;;;;;;23.53;17.10;;;;;;;;;;5050287;28;20448;-76
2022/12/01 03:13:31;;;;;;;27.60;16.53;;;;;;;;;;5055652;28;20445;-75
2022/12/01 03:16:02;;;;;;;24.47;17.20;;;;;;;;;;5080211;28;20470;-75
2022/12/01 03:18:33;;;;;;;27.00;16.43;;;;;;;;;;5094357;28;20444;-75
2022/12/01 03:21:03;;;;;;;26.43;18.03;;;;;;;;;;5092075;28;20434;-75
2022/12/01 03:23:31;;;;;;;24.23;17.10;;;;;;;;;;5069188;28;20450;-75
2022/12/01 03:26:00;;;;;;;29.50;19.03;;;;;;;;;;5070520;28;20464;-76
2022/12/01 03:28:29;;;;;;;26.00;17.57;;;;;;;;;;5072671;28;20443;-76
2022/12/01 03:30:59;;;;;;;29.60;18.10;;;;;;;;;;5069976;28;20440;-75
2022/12/01 03:33:29;;;;;;;23.67;16.60;;;;;;;;;;5069803;28;20486;-75
2022/12/01 03:36:00;;;;;;;24.57;17.23;;;;;;;;;;5072488;28;20517;-75
2022/12/01 03:38:28;;;;;;;24.10;17.80;;;;;;;;;;5069513;28;20941;-76
2022/12/01 03:40:57;;;;;;;26.50;17.90;;;;;;;;;;5069100;28;20482;-77
2022/12/01 03:43:26;;;;;;;28.57;18.80;;;;;;;;;;5068145;28;20442;-77
2022/12/01 03:45:55;;;;;;;25.63;16.00;;;;;;;;;;5069052;28;20480;-75
2022/12/01 03:48:23;;;;;;;23.90;16.20;;;;;;;;;;5068883;28;20457;-75
2022/12/01 03:50:52;;;;;;;25.17;17.47;;;;;;;;;;5068691;28;20449;-76
2022/12/01 03:53:23;;;;;;;22.73;16.80;;;;;;;;;;5068045;28;20453;-77
2022/12/01 03:55:53;;;;;;;27.00;18.17;;;;;;;;;;5068830;28;20958;-75
2022/12/01 03:58:22;;;;;;;22.67;16.30;;;;;;;;;;5068497;28;20454;-75
2022/12/01 04:00:54;;;;;;;27.63;17.67;;;;;;;;;;5069592;28;20479;-75
2022/12/01 04:03:23;;;;;;;29.80;17.63;;;;;;;;;;5068534;28;20459;-76
2022/12/01 04:05:50;;;;;;;25.50;17.30;;;;;;;;;;5073000;28;20477;-75
2022/12/01 04:08:18;;;;;;;25.77;18.03;;;;;;;;;;5076026;28;20450;-76
2022/12/01 04:10:46;;;;;;;24.37;16.97;;;;;;;;;;5074319;28;20530;-75
2022/12/01 04:13:21;;;;;;;26.33;16.80;;;;;;;;;;5064956;28;20453;-76
2022/12/01 04:15:48;;;;;;;25.27;16.87;;;;;;;;;;5072519;28;20872;-75
2022/12/01 04:18:15;;;;;;;28.70;18.13;;;;;;;;;;5075326;28;20445;-76
2022/12/01 04:20:43;;;;;;;26.03;18.10;;;;;;;;;;5073387;28;20623;-75
2022/12/01 04:23:10;;;;;;;23.67;16.23;;;;;;;;;;5062829;28;20455;-77
2022/12/01 04:25:37;;;;;;;23.33;16.33;;;;;;;;;;5066090;28;20471;-75
2022/12/01 04:28:05;;;;;;;25.27;17.17;;;;;;;;;;5068284;28;20462;-75
2022/12/01 04:30:32;;;;;;;23.93;17.53;;;;;;;;;;5068357;28;20448;-76
2022/12/01 04:32:59;;;;;;;28.47;19.30;;;;;;;;;;5068135;28;20982;-76
2022/12/01 04:35:26;;;;;;;26.37;17.73;;;;;;;;;;5071777;28;20460;-76
2022/12/01 04:37:54;;;;;;;26.83;19.60;;;;;;;;;;5072529;28;20470;-75
2022/12/01 04:40:21;;;;;;;27.63;19.00;;;;;;;;;;5071943;28;21069;-75
2022/12/01 04:42:48;;;;;;;26.03;18.80;;;;;;;;;;5071182;28;20905;-76
2022/12/01 04:45:16;;;;;;;25.70;18.73;;;;;;;;;;5072085;28;21119;-75
2022/12/01 04:47:43;;;;;;;25.30;18.17;;;;;;;;;;5072209;28;20452;-75
2022/12/01 04:50:11;;;;;;;26.10;17.80;;;;;;;;;;5072190;28;20451;-76
2022/12/01 04:52:38;;;;;;;24.33;17.10;;;;;;;;;;5071346;28;20451;-76
2022/12/01 04:55:07;;;;;;;23.70;16.57;;;;;;;;;;5071972;28;20466;-75
2022/12/01 04:57:34;;;;;;;23.43;16.60;;;;;;;;;;5071874;28;20447;-75
2022/12/01 05:00:01;;;;;;;23.80;17.30;;;;;;;;;;5071766;28;20482;-75
2022/12/01 05:02:29;;;;;;;24.83;17.70;;;;;;;;;;5071097;28;20523;-75
2022/12/01 05:04:56;;;;;;;29.40;18.33;;;;;;;;;;5069034;28;20483;-76
2022/12/01 05:07:23;;;;;;;26.60;17.90;;;;;;;;;;5058947;28;21041;-76
2022/12/01 05:09:50;;;;;;;24.43;16.63;;;;;;;;;;5070935;28;20848;-76
2022/12/01 05:12:18;;;;;;;29.97;17.97;;;;;;;;;;5071326;28;21378;-75
2022/12/01 05:14:45;;;;;;;28.07;18.30;;;;;;;;;;5064984;28;20936;-75
2022/12/01 05:17:12;;;;;;;25.17;18.50;;;;;;;;;;5071234;28;20447;-76
2022/12/01 05:22:25;;;;;;;25.87;18.10;;;;;;;;;;5071382;28;20516;-75
2022/12/01 05:24:52;;;;;;;28.70;19.97;;;;;;;;;;5067019;28;20466;-76
2022/12/01 05:27:19;;;;;;;29.10;19.50;;;;;;;;;;5071347;28;20449;-76
2022/12/01 05:29:46;;;;;;;28.70;20.33;;;;;;;;;;5071016;28;20446;-76
2022/12/01 05:32:13;;;;;;;30.53;19.10;;;;;;;;;;5070971;28;20454;-76
2022/12/01 05:34:41;;;;;;;25.80;18.67;;;;;;;;;;5070526;28;20476;-75
2022/12/01 05:37:08;;;;;;;25.60;17.67;;;;;;;;;;5071093;28;20450;-75
2022/12/01 05:39:35;;;;;;;27.67;18.13;;;;;;;;;;5070857;28;21019;-75
2022/12/01 05:42:02;;;;;;;28.93;19.80;;;;;;;;;;5070733;28;21058;-77
2022/12/01 05:44:30;;;;;;;27.93;19.20;;;;;;;;;;5070755;28;21015;-76
2022/12/01 05:46:57;;;;;;;31.87;20.60;;;;;;;;;;5095067;28;20428;-75
2022/12/01 05:49:24;;;;;;;27.87;20.80;;;;;;;;;;5098541;28;20420;-76
2022/12/01 05:51:52;;;;;;;32.03;20.17;;;;;;;;;;5088432;28;20448;-75
2022/12/01 05:54:19;;;;;;;31.50;20.80;;;;;;;;;;5073592;28;20470;-76
2022/12/01 05:56:46;;;;;;;28.37;19.90;;;;;;;;;;5073595;28;20460;-76
2022/12/01 05:59:13;;;;;;;29.20;19.67;;;;;;;;;;5086973;28;20624;-76
2022/12/01 06:01:40;;;;;;;29.73;20.33;;;;;;;;;;5095969;28;20473;-78
2022/12/01 06:04:08;;;;;;;27.80;19.10;;;;;;;;;;5085582;28;20872;-76
2022/12/01 06:06:35;;;;;;;27.23;18.30;;;;;;;;;;5080705;28;20508;-76
2022/12/01 06:09:03;;;;;;;31.90;21.27;;;;;;;;;;5078683;28;20476;-76
2022/12/01 06:11:30;;;;;;;31.23;20.83;;;;;;;;;;5075793;28;20447;-76
2022/12/01 06:13:57;;;;;;;26.73;19.00;;;;;;;;;;5072643;28;20492;-75
2022/12/01 06:16:24;;;;;;;28.30;19.97;;;;;;;;;;5072498;28;20443;-76
2022/12/01 06:18:51;;;;;;;29.10;19.97;;;;;;;;;;5072582;28;20443;-76
2022/12/01 06:21:19;;;;;;;29.70;20.20;;;;;;;;;;5072584;28;20491;-76
2022/12/01 06:23:46;;;;;;;29.80;19.90;;;;;;;;;;5074547;28;20863;-77
2022/12/01 06:26:14;;;;;;;30.13;19.67;;;;;;;;;;5074241;28;20467;-76
2022/12/01 06:28:41;;;;;;;28.83;20.23;;;;;;;;;;5073887;28;20474;-77
2022/12/01 06:31:08;;;;;;;29.40;19.20;;;;;;;;;;5073763;28;20443;-76
2022/12/01 06:33:35;;;;;;;33.73;20.40;;;;;;;;;;5072897;28;20802;-76
2022/12/01 06:36:04;;;;;;;27.47;19.37;;;;;;;;;;5072104;28;20503;-76
2022/12/01 06:38:31;;;;;;;29.73;19.20;;;;;;;;;;5071993;28;20536;-75
2022/12/01 06:40:58;;;;;;;30.47;20.83;;;;;;;;;;5071787;28;20847;-76
2022/12/01 06:43:27;;;;;;;26.90;19.67;;;;;;;;;;5071531;28;20448;-75
2022/12/01 06:45:54;;;;;;;24.90;17.67;;;;;;;;;;5072049;28;21089;-76
2022/12/01 06:48:21;;;;;;;27.30;19.23;;;;;;;;;;5071890;28;20451;-77
2022/12/01 06:50:48;;;;;;;27.00;19.40;;;;;;;;;;5071453;28;20442;-77
2022/12/01 06:53:15;;;;;;;32.87;19.87;;;;;;;;;;5071253;28;20453;-75
2022/12/01 06:55:42;;;;;;;27.17;19.23;;;;;;;;;;5071882;28;20488;-76
2022/12/01 06:58:09;;;;;;;28.03;19.20;;;;;;;;;;5070136;28;20824;-75
2022/12/01 07:00:38;;;;;;;32.00;19.83;;;;;;;;;;5071037;28;20501;-76
2022/12/01 07:03:05;;;;;;;33.23;19.33;;;;;;;;;;5070706;28;20965;-77
2022/12/01 07:05:32;;;;;;;28.63;18.97;;;;;;;;;;5071141;28;20494;-76
2022/12/01 07:07:59;;;;;;;30.03;19.77;;;;;;;;;;5071172;28;20451;-77
2022/12/01 07:10:27;;;;;;;30.20;21.13;;;;;;;;;;5071886;28;20444;-76
2022/12/01 07:12:56;;;;;;;31.57;19.70;;;;;;;;;;5074149;28;20479;-78
2022/12/01 07:15:23;;;;;;;29.83;19.50;;;;;;;;;;5075265;28;20468;-77
2022/12/01 07:17:51;;;;;;;27.83;18.47;;;;;;;;;;5075281;28;20939;-75
2022/12/01 07:20:18;;;;;;;27.27;18.57;;;;;;;;;;5072000;28;20485;-76
2022/12/01 07:22:45;;;;;;;31.27;21.20;;;;;;;;;;5071410;28;20448;-75
2022/12/01 07:25:12;;;;;;;30.13;20.10;;;;;;;;;;5072104;28;20510;-76
2022/12/01 07:27:39;;;;;;;29.10;19.90;;;;;;;;;;5078229;28;20468;-76
2022/12/01 07:30:07;;;;;;;29.77;18.90;;;;;;;;;;5080126;28;20436;-75
2022/12/01 07:32:34;;;;;;;27.53;18.20;;;;;;;;;;5081295;28;20453;-74
2022/12/01 07:35:02;;;;;;;28.37;20.23;;;;;;;;;;5082148;28;20469;-76
2022/12/01 07:37:29;;;;;;;28.73;20.63;;;;;;;;;;5080333;28;20470;-75
2022/12/01 07:39:57;;;;;;;27.30;19.57;;;;;;;;;;5072018;28;20547;-77
2022/12/01 07:42:24;;;;;;;27.33;18.57;;;;;;;;;;5070954;28;20450;-76
2022/12/01 07:44:51;;;;;;;28.80;20.27;;;;;;;;;;5070746;28;20463;-77
2022/12/01 07:47:18;;;;;;;30.07;20.33;;;;;;;;;;5071103;28;20444;-77
2022/12/01 07:49:45;;;;;;;29.70;18.20;;;;;;;;;;5071030;28;20444;-76
2022/12/01 07:52:13;;;;;;;28.50;19.63;;;;;;;;;;5070865;28;20444;-76
2022/12/01 07:54:40;;;;;;;28.77;20.33;;;;;;;;;;5070098;28;20465;-75
2022/12/01 07:57:07;;;;;;;29.23;20.50;;;;;;;;;;5070131;28;20450;-75
2022/12/01 07:59:34;;;;;;;29.53;20.37;;;;;;;;;;5070415;28;20444;-75
2022/12/01 08:02:02;;;;;;;29.63;19.40;;;;;;;;;;5070402;28;20489;-76
2022/12/01 08:04:29;;;;;;;26.90;18.43;;;;;;;;;;5071943;28;20475;-76
2022/12/01 08:06:56;;;;;;;25.83;18.70;;;;;;;;;;5073579;28;20479;-75
2022/12/01 08:09:24;;;;;;;29.93;19.07;;;;;;;;;;5070772;28;20436;-75
2022/12/01 08:11:51;;;;;;;26.63;18.27;;;;;;;;;;5071646;28;20431;-76
2022/12/01 08:14:19;;;;;;;29.27;18.60;;;;;;;;;;5089465;28;20511;-76
2022/12/01 08:16:46;;;;;;;32.50;20.50;;;;;;;;;;5094604;28;20451;-75
2022/12/01 08:19:13;;;;;;;29.60;18.63;;;;;;;;;;5079902;28;20431;-75
2022/12/01 08:21:40;;;;;;;30.27;19.83;;;;;;;;;;5067876;28;20491;-76
2022/12/01 08:24:07;;;;;;;28.90;19.43;;;;;;;;;;5060488;28;20449;-76
2022/12/01 08:26:36;;;;;;;26.03;18.60;;;;;;;;;;5072283;28;20950;-75
2022/12/01 08:29:03;;;;;;;30.30;18.40;;;;;;;;;;5069468;28;20479;-76
2022/12/01 08:31:31;;;;;;;27.73;19.23;;;;;;;;;;5073532;28;20447;-76
2022/12/01 08:33:59;;;;;;;30.83;19.17;;;;;;;;;;5074951;28;20574;-76
2022/12/01 08:36:26;;;;;;;27.47;19.37;;;;;;;;;;5074227;28;20959;-76
2022/12/01 08:38:54;;;;;;;29.30;18.87;;;;;;;;;;5073187;28;21249;-75
2022/12/01 08:41:21;;;;;;;27.00;17.90;;;;;;;;;;5073146;28;20495;-76
2022/12/01 08:43:50;;;;;;;28.17;18.07;;;;;;;;;;5073250;28;20456;-76
2022/12/01 08:46:17;;;;;;;30.27;19.50;;;;;;;;;;5072510;28;20862;-75
2022/12/01 08:48:44;;;;;;;27.73;19.53;;;;;;;;;;5072135;28;20893;-77
2022/12/01 08:51:28;;;;;;;;;;;;;;;;;;;;;
2022/12/01 08:53:56;;;;;;;24.30;18.37;;;;;;;;;;5071177;28;20552;-76
2022/12/01 08:56:25;;;;;;;26.30;18.60;;;;;;;;;;5070619;28;20447;-76
2022/12/01 08:58:54;;;;;;;24.70;18.97;;;;;;;;;;5070657;28;20458;-76
2022/12/01 09:01:21;;;;;;;24.77;17.60;;;;;;;;;;5071547;28;20479;-77
2022/12/01 09:04:03;;;;;;;26.20;18.30;;;;;;;;;;5068068;28;20936;-76
2022/12/01 09:06:30;;;;;;;23.40;17.13;;;;;;;;;;5061766;28;20460;-76
2022/12/01 09:08:59;;;;;;;29.90;18.67;;;;;;;;;;5051418;28;20459;-77
2022/12/01 09:11:26;;;;;;;23.80;18.00;;;;;;;;;;5053496;28;20448;-76
2022/12/01 09:13:54;;;;;;;26.07;20.00;;;;;;;;;;5050745;28;20462;-77
2022/12/01 09:16:22;;;;;;;24.70;18.30;;;;;;;;;;5050264;28;20437;-75
2022/12/01 09:18:49;;;;;;;26.73;19.10;;;;;;;;;;5051686;28;20450;-75
2022/12/01 09:21:17;;;;;;;27.63;19.40;;;;;;;;;;5053366;28;20570;-76
2022/12/01 09:23:44;;;;;;;23.83;18.00;;;;;;;;;;5054225;28;20935;-75
2022/12/01 09:26:12;;;;;;;27.53;18.20;;;;;;;;;;5055352;28;21000;-76
2022/12/01 09:28:39;;;;;;;26.57;18.30;;;;;;;;;;5060926;28;20444;-76
2022/12/01 09:31:08;;;;;;;24.97;18.83;;;;;;;;;;5063722;28;20459;-75
2022/12/01 09:33:36;;;;;;;25.87;17.80;;;;;;;;;;5072869;28;20436;-76
2022/12/01 09:36:03;;;;;;;28.13;18.77;;;;;;;;;;5074605;28;20572;-76
2022/12/01 09:38:30;;;;;;;27.67;17.80;;;;;;;;;;5073930;28;20460;-76
2022/12/01 09:40:59;;;;;;;28.40;19.40;;;;;;;;;;5073378;28;20475;-77
2022/12/01 09:43:28;;;;;;;24.57;18.73;;;;;;;;;;5073260;28;20444;-77
2022/12/01 09:45:59;;;;;;;23.93;17.60;;;;;;;;;;5073283;28;20467;-76
2022/12/01 09:48:32;;;;;;;27.70;18.27;;;;;;;;;;5073532;28;20455;-75
2022/12/01 09:50:59;;;;;;;26.97;20.17;;;;;;;;;;5072699;28;20450;-76
2022/12/01 09:53:27;;;;;;;25.03;17.83;;;;;;;;;;5072242;28;20449;-75
2022/12/01 09:55:55;;;;;;;24.03;18.00;;;;;;;;;;5073514;28;20475;-76
2022/12/01 09:58:23;;;;;;;25.80;17.90;;;;;;;;;;5073170;28;20444;-75
2022/12/01 10:00:51;;;;;;;25.20;17.87;;;;;;;;;;5072718;28;21002;-76
2022/12/01 10:03:24;;;;;;;29.73;18.23;;;;;;;;;;5073674;28;20441;-76
2022/12/01 10:05:54;;;;;;;26.53;18.47;;;;;;;;;;5072464;28;20480;-76
2022/12/01 10:08:23;;;;;;;28.23;18.40;;;;;;;;;;5072610;28;20943;-76
2022/12/01 10:10:51;;;;;;;27.10;18.97;;;;;;;;;;5071662;28;20812;-76
2022/12/01 10:13:20;;;;;;;27.17;17.90;;;;;;;;;;5067261;28;20437;-76
2022/12/01 10:15:52;;;;;;;26.70;17.93;;;;;;;;;;5060864;28;20492;-77
2022/12/01 10:18:24;;;;;;;35.67;18.60;;;;;;;;;;5051861;28;20940;-76
2022/12/01 10:20:57;;;;;;;30.20;20.30;;;;;;;;;;5062380;28;20873;-76
2022/12/01 10:23:38;;;;;;;24.43;17.90;;;;;;;;;;5069596;28;20437;-76
2022/12/01 10:26:08;;;;;;;27.80;18.73;;;;;;;;;;5067778;28;20455;-76
2022/12/01 10:28:53;;;;;;;26.90;18.40;;;;;;;;;;5061767;28;20495;-76
2022/12/01 10:31:21;;;;;;;25.27;18.67;;;;;;;;;;5058874;28;20433;-77
2022/12/01 10:33:55;;;;;;;27.17;18.77;;;;;;;;;;5064500;28;20445;-76
2022/12/01 10:36:23;;;;;;;28.37;20.20;;;;;;;;;;5060457;28;20443;-77
2022/12/01 10:38:50;;;;;;;28.07;19.73;;;;;;;;;;5064321;28;20439;-76
2022/12/01 10:41:19;;;;;;;23.80;18.30;;;;;;;;;;5069452;28;21099;-75
2022/12/01 10:43:47;;;;;;;24.87;18.47;;;;;;;;;;5071901;28;20435;-77
2022/12/01 10:46:20;;;;;;;31.40;19.33;;;;;;;;;;5073751;28;20456;-76
2022/12/01 10:48:53;;;;;;;28.40;19.20;;;;;;;;;;5072725;28;20510;-76
2022/12/01 10:51:21;;;;;;;27.07;19.27;;;;;;;;;;5072705;28;20482;-77
2022/12/01 10:53:50;;;;;;;27.00;18.27;;;;;;;;;;5069949;28;20847;-77
2022/12/01 10:56:18;;;;;;;27.40;18.90;;;;;;;;;;5072190;28;20492;-77
2022/12/01 10:58:46;;;;;;;26.40;18.20;;;;;;;;;;5058674;28;20464;-77
2022/12/01 11:01:18;;;;;;;27.43;19.77;;;;;;;;;;5068335;28;20472;-77
2022/12/01 11:03:50;;;;;;;27.70;18.50;;;;;;;;;;5072820;28;20443;-76
2022/12/01 11:06:21;;;;;;;26.13;19.40;;;;;;;;;;5071881;28;20474;-76
2022/12/01 11:08:53;;;;;;;25.70;19.20;;;;;;;;;;5071518;28;20452;-76
2022/12/01 11:11:24;;;;;;;26.60;17.53;;;;;;;;;;5071565;28;20443;-76
2022/12/01 11:13:51;;;;;;;29.37;18.50;;;;;;;;;;5071245;28;20439;-77
2022/12/01 11:16:34;;;;;;;26.87;18.13;;;;;;;;;;5072434;28;20562;-77
2022/12/01 11:19:08;;;;;;;26.63;18.10;;;;;;;;;;5071833;28;20949;-77
2022/12/01 11:21:35;;;;;;;27.40;18.70;;;;;;;;;;5072175;28;20585;-77
2022/12/01 11:24:16;;;;;;;28.03;19.00;;;;;;;;;;5074971;28;20450;-76
2022/12/01 11:26:44;;;;;;;24.93;19.07;;;;;;;;;;5075131;28;20440;-77
2022/12/01 11:29:27;;;;;;;25.13;19.00;;;;;;;;;;5072565;28;20487;-76
2022/12/01 11:31:54;;;;;;;25.60;18.00;;;;;;;;;;5072511;28;20565;-77
2022/12/01 11:34:23;;;;;;;23.87;17.37;;;;;;;;;;5071113;28;20525;-77
2022/12/01 11:36:52;;;;;;;25.33;18.80;;;;;;;;;;5073434;28;20444;-76
2022/12/01 11:39:24;;;;;;;29.17;18.83;;;;;;;;;;5078300;28;20455;-75
2022/12/01 11:41:55;;;;;;;30.20;20.00;;;;;;;;;;5073305;28;20493;-77
2022/12/01 11:44:22;;;;;;;25.27;17.73;;;;;;;;;;5071766;28;21048;-76
2022/12/01 11:46:50;;;;;;;25.33;17.37;;;;;;;;;;5072800;28;20447;-76
2022/12/01 11:49:17;;;;;;;30.73;18.60;;;;;;;;;;5076254;28;20435;-77
2022/12/01 11:51:45;;;;;;;25.90;18.27;;;;;;;;;;5079231;28;20440;-76
2022/12/01 11:54:16;;;;;;;27.60;18.97;;;;;;;;;;5072287;28;20451;-75
2022/12/01 11:56:45;;;;;;;28.30;18.33;;;;;;;;;;5072779;28;20456;-76
2022/12/01 11:59:13;;;;;;;25.73;17.73;;;;;;;;;;5072582;28;20440;-75
2022/12/01 12:01:50;;;;;;;24.33;16.97;;;;;;;;;;5059234;28;21327;-76
2022/12/01 12:04:25;;;;;;;25.10;18.30;;;;;;;;;;5073725;28;20474;-76
2022/12/01 12:06:57;;;;;;;24.63;16.83;;;;;;;;;;5073157;28;20831;-76
2022/12/01 12:09:31;;;;;;;26.30;18.63;;;;;;;;;;5073522;28;20432;-75
2022/12/01 12:12:06;;;;;;;26.70;19.17;;;;;;;;;;5074021;28;20436;-76
2022/12/01 12:14:40;;;;;;;23.07;16.80;;;;;;;;;;5074008;28;20470;-75
2022/12/01 12:17:18;;;;;;;22.53;16.70;;;;;;;;;;5075714;28;20446;-75
2022/12/01 12:19:55;;;;;;;24.87;18.40;;;;;;;;;;5074799;28;20448;-76
2022/12/01 12:22:27;;;;;;;26.07;17.30;;;;;;;;;;5075961;28;20464;-75
2022/12/01 12:25:02;;;;;;;24.40;17.27;;;;;;;;;;5076483;28;20477;-76
2022/12/01 12:27:35;;;;;;;24.53;17.83;;;;;;;;;;5072445;28;20850;-76
2022/12/01 12:30:10;;;;;;;24.00;17.00;;;;;;;;;;5071371;28;20444;-75
2022/12/01 12:32:42;;;;;;;23.30;17.30;;;;;;;;;;5073463;28;20440;-76
2022/12/01 12:35:16;;;;;;;26.10;18.20;;;;;;;;;;5073634;28;20636;-76
2022/12/01 12:37:46;;;;;;;24.70;17.43;;;;;;;;;;5073203;28;20455;-77
2022/12/01 12:40:29;;;;;;;23.07;17.17;;;;;;;;;;5073357;28;20459;-76
2022/12/01 12:43:05;;;;;;;21.90;15.23;;;;;;;;;;5072932;28;20464;-76
2022/12/01 12:45:38;;;;;;;21.63;16.00;;;;;;;;;;5073186;28;20469;-76
2022/12/01 12:48:10;;;;;;;26.63;16.87;;;;;;;;;;5072216;28;20456;-76
2022/12/01 12:50:40;;;;;;;22.33;16.40;;;;;;;;;;5071451;28;20431;-76
2022/12/01 12:53:10;;;;;;;22.97;16.60;;;;;;;;;;5071312;28;20451;-76
2022/12/01 12:55:39;;;;;;;22.77;16.27;;;;;;;;;;5072779;28;20478;-75
2022/12/01 12:58:11;;;;;;;22.40;16.73;;;;;;;;;;5076176;28;20866;-76
2022/12/01 13:00:40;;;;;;;24.87;17.10;;;;;;;;;;5076202;28;20436;-77
2022/12/01 13:03:15;;;;;;;23.33;17.07;;;;;;;;;;5075418;28;20480;-76
2022/12/01 13:05:44;;;;;;;26.93;18.43;;;;;;;;;;5075218;28;20489;-75
2022/12/01 13:08:14;;;;;;;22.57;16.47;;;;;;;;;;5077392;28;20450;-77
2022/12/01 13:10:45;;;;;;;22.07;16.03;;;;;;;;;;5078189;28;20507;-76
2022/12/01 13:13:21;;;;;;;27.33;16.10;;;;;;;;;;5076459;28;20519;-76
2022/12/01 13:15:49;;;;;;;24.57;16.80;;;;;;;;;;5075899;28;20465;-76
2022/12/01 13:18:21;;;;;;;21.90;16.10;;;;;;;;;;5076388;28;20483;-74
2022/12/01 13:20:48;;;;;;;22.33;17.00;;;;;;;;;;5088870;28;20512;-74
2022/12/01 13:23:18;;;;;;;25.50;17.10;;;;;;;;;;5091152;28;20490;-76
2022/12/01 13:25:48;;;;;;;23.63;17.50;;;;;;;;;;5085140;28;20524;-76
2022/12/01 13:28:18;;;;;;;21.80;16.63;;;;;;;;;;5075734;28;20441;-75
2022/12/01 13:30:59;;;;;;;22.97;17.03;;;;;;;;;;5073912;28;20448;-76
2022/12/01 13:33:26;;;;;;;22.60;17.10;;;;;;;;;;5073735;28;20972;-76
2022/12/01 13:35:54;;;;;;;22.23;16.30;;;;;;;;;;5075267;28;20463;-75
2022/12/01 13:38:28;;;;;;;28.03;17.30;;;;;;;;;;5075061;28;20944;-75
2022/12/01 13:41:21;;;;;;;26.23;16.90;;;;;;;;;;5074830;28;20482;-76
2022/12/01 13:43:55;;;;;;;24.83;15.50;;;;;;;;;;5074663;28;20460;-74
2022/12/01 13:46:24;;;;;;;23.00;15.90;;;;;;;;;;5074584;28;20444;-75
2022/12/01 13:48:53;;;;;;;20.60;15.57;;;;;;;;;;5074765;28;20449;-76
2022/12/01 13:51:20;;;;;;;24.73;16.50;;;;;;;;;;5074175;28;20455;-75
2022/12/01 13:53:56;;;;;;;25.00;16.40;;;;;;;;;;5074786;28;20437;-76
2022/12/01 13:56:27;;;;;;;19.97;15.20;;;;;;;;;;5074843;28;20794;-77
2022/12/01 13:58:55;;;;;;;24.93;16.40;;;;;;;;;;5073685;28;20436;-75
2022/12/01 14:01:41;;;;;;;24.73;17.00;;;;;;;;;;5079745;28;20448;-77
2022/12/01 14:04:31;;;;;;;21.90;15.30;;;;;;;;;;5078756;28;20444;-76
2022/12/01 14:07:16;;;;;;;24.57;15.90;;;;;;;;;;5073151;28;20414;-76
2022/12/01 14:09:43;;;;;;;22.40;16.13;;;;;;;;;;5072647;28;20817;-75
2022/12/01 14:12:16;;;;;;;23.50;16.50;;;;;;;;;;5073060;28;21024;-77
2022/12/01 14:14:45;;;;;;;24.30;17.03;;;;;;;;;;5072232;28;20469;-75
2022/12/01 14:17:24;;;;;;;21.40;16.73;;;;;;;;;;5079004;28;20455;-76
2022/12/01 14:19:53;;;;;;;22.90;17.20;;;;;;;;;;5068090;28;20441;-76
2022/12/01 14:22:32;;;;;;;21.50;16.30;;;;;;;;;;5078563;28;20525;-76
2022/12/01 14:25:00;;;;;;;22.90;15.17;;;;;;;;;;5082503;28;20513;-75
2022/12/01 14:27:33;;;;;;;20.47;16.20;;;;;;;;;;5080659;28;20448;-75
2022/12/01 14:30:23;;;;;;;26.63;17.60;;;;;;;;;;5080672;28;20449;-75
2022/12/01 14:32:50;;;;;;;22.80;16.57;;;;;;;;;;5080221;28;20440;-76
2022/12/01 14:35:18;;;;;;;21.10;14.73;;;;;;;;;;5078914;28;20465;-76
2022/12/01 14:37:48;;;;;;;23.27;16.37;;;;;;;;;;5075887;28;20455;-75